createdAt,value
2016-12-12T00:00:15.848Z,998.95
2016-12-12T00:01:25.887Z,998.96
2016-12-12T00:02:36.253Z,998.9
2016-12-12T00:03:46.290Z,998.99
2016-12-12T00:04:56.024Z,998.93
2016-12-12T00:06:06.383Z,998.9
2016-12-12T00:07:16.734Z,998.96
2016-12-12T00:08:26.448Z,998.93
2016-12-12T00:09:36.773Z,998.97
2016-12-12T00:10:46.790Z,998.92
2016-12-12T00:11:57.126Z,998.96
2016-12-12T00:13:07.486Z,998.91
2016-12-12T00:14:17.505Z,998.98
2016-12-12T00:15:27.875Z,998.96
2016-12-12T00:16:38.228Z,998.98
2016-12-12T00:17:48.576Z,998.96
2016-12-12T00:18:58.900Z,998.93
2016-12-12T00:20:09.241Z,998.91
2016-12-12T00:21:19.600Z,998.95
2016-12-12T00:22:29.922Z,998.97
2016-12-12T00:23:40.295Z,998.95
2016-12-12T00:24:50.317Z,998.92
2016-12-12T00:26:00.334Z,998.93
2016-12-12T00:27:10.350Z,998.93
2016-12-12T00:28:20.710Z,998.92
2016-12-12T00:29:31.042Z,998.9
2016-12-12T00:30:41.059Z,998.88
2016-12-12T00:31:51.072Z,998.91
2016-12-12T00:33:01.100Z,998.91
2016-12-12T00:34:10.499Z,998.91
2016-12-12T00:35:20.512Z,998.87
2016-12-12T00:36:30.843Z,998.92
2016-12-12T00:37:40.552Z,998.91
2016-12-12T00:38:50.261Z,998.91
2016-12-12T00:40:00.292Z,998.93
2016-12-12T00:41:10.635Z,998.95
2016-12-12T00:42:20.654Z,999
2016-12-12T00:43:30.345Z,998.91
2016-12-12T00:44:40.364Z,998.96
2016-12-12T00:45:50.692Z,998.92
2016-12-12T00:47:00.098Z,998.95
2016-12-12T00:48:10.126Z,998.95
2016-12-12T00:49:19.831Z,998.92
2016-12-12T00:50:30.149Z,998.94
2016-12-12T00:51:40.179Z,999.01
2016-12-12T00:52:50.199Z,999.01
2016-12-12T00:54:00.258Z,998.91
2016-12-12T00:55:10.614Z,998.91
2016-12-12T00:56:20.331Z,998.91
2016-12-12T00:57:30.679Z,998.91
2016-12-12T00:58:40.422Z,998.91
2016-12-12T00:59:50.779Z,998.95
2016-12-12T01:01:00.487Z,998.92
2016-12-12T01:02:10.521Z,998.94
2016-12-12T01:03:20.852Z,998.92
2016-12-12T01:04:31.170Z,998.94
2016-12-12T01:05:41.526Z,999.03
2016-12-12T01:06:51.872Z,998.95
2016-12-12T01:08:01.590Z,998.92
2016-12-12T01:09:11.611Z,998.92
2016-12-12T01:10:21.938Z,998.94
2016-12-12T01:11:32.276Z,998.98
2016-12-12T01:12:42.592Z,998.89
2016-12-12T01:13:51.989Z,998.88
2016-12-12T01:15:02.002Z,998.86
2016-12-12T01:16:12.028Z,998.88
2016-12-12T01:17:21.424Z,998.89
2016-12-12T01:18:31.127Z,998.9
2016-12-12T01:19:41.151Z,998.87
2016-12-12T01:20:51.475Z,998.82
2016-12-12T01:22:01.838Z,998.86
2016-12-12T01:23:12.172Z,998.82
2016-12-12T01:24:22.500Z,998.88
2016-12-12T01:25:32.207Z,998.84
2016-12-12T01:26:42.548Z,998.86
2016-12-12T01:27:51.940Z,998.75
2016-12-12T01:29:02.275Z,998.77
2016-12-12T01:30:12.608Z,998.78
2016-12-12T01:31:22.972Z,998.72
2016-12-12T01:32:33.037Z,998.75
2016-12-12T01:33:43.061Z,998.78
2016-12-12T01:34:53.392Z,998.73
2016-12-12T01:36:03.108Z,998.82
2016-12-12T01:37:13.118Z,998.71
2016-12-12T01:38:23.141Z,998.79
2016-12-12T01:39:33.470Z,998.69
2016-12-12T01:40:43.179Z,998.69
2016-12-12T01:41:53.200Z,998.77
2016-12-12T01:43:03.230Z,998.71
2016-12-12T01:44:12.933Z,998.65
2016-12-12T01:45:22.640Z,998.69
2016-12-12T01:46:32.956Z,998.61
2016-12-12T01:47:43.278Z,998.64
2016-12-12T01:48:53.294Z,998.67
2016-12-12T01:50:03.327Z,998.67
2016-12-12T01:51:13.335Z,998.69
2016-12-12T01:52:23.681Z,998.68
2016-12-12T01:53:34.008Z,998.7
2016-12-12T01:54:44.073Z,998.73
2016-12-12T01:55:54.116Z,998.65
2016-12-12T01:57:04.447Z,998.75
2016-12-12T01:58:14.784Z,998.67
2016-12-12T01:59:24.798Z,998.69
2016-12-12T02:00:34.519Z,998.7
2016-12-12T02:01:44.849Z,998.7
2016-12-12T02:02:54.567Z,998.74
2016-12-12T02:04:04.595Z,998.71
2016-12-12T02:05:14.609Z,998.78
2016-12-12T02:06:24.940Z,998.79
2016-12-12T02:07:35.279Z,998.78
2016-12-12T02:08:45.291Z,998.79
2016-12-12T02:09:55.340Z,998.79
2016-12-12T02:11:05.678Z,998.73
2016-12-12T02:12:15.695Z,998.71
2016-12-12T02:13:26.051Z,998.74
2016-12-12T02:14:36.083Z,998.7
2016-12-12T02:15:46.105Z,998.68
2016-12-12T02:16:56.461Z,998.71
2016-12-12T02:18:06.498Z,998.69
2016-12-12T02:19:16.844Z,998.76
2016-12-12T02:20:26.871Z,998.72
2016-12-12T02:21:37.193Z,998.73
2016-12-12T02:22:47.540Z,998.69
2016-12-12T02:23:57.882Z,998.59
2016-12-12T02:25:07.899Z,998.68
2016-12-12T02:26:17.631Z,998.65
2016-12-12T02:27:27.966Z,998.67
2016-12-12T02:28:38.288Z,998.68
2016-12-12T02:29:48.302Z,998.69
2016-12-12T02:30:58.633Z,998.64
2016-12-12T02:32:08.660Z,998.59
2016-12-12T02:33:18.680Z,998.51
2016-12-12T02:34:28.682Z,998.52
2016-12-12T02:35:38.689Z,998.56
2016-12-12T02:36:49.022Z,998.53
2016-12-12T02:37:59.358Z,998.43
2016-12-12T02:39:09.370Z,998.63
2016-12-12T02:40:19.404Z,998.52
2016-12-12T02:41:29.447Z,998.56
2016-12-12T02:42:39.176Z,998.59
2016-12-12T02:43:49.203Z,998.52
2016-12-12T02:44:59.232Z,998.45
2016-12-12T02:46:09.251Z,998.48
2016-12-12T02:47:19.260Z,998.45
2016-12-12T02:48:29.617Z,998.5
2016-12-12T02:49:39.016Z,998.66
2016-12-12T02:50:49.032Z,998.6
2016-12-12T02:51:59.042Z,998.45
2016-12-12T02:53:08.738Z,998.55
2016-12-12T02:54:18.759Z,998.48
2016-12-12T02:55:29.083Z,998.54
2016-12-12T02:56:39.394Z,998.51
2016-12-12T02:57:49.725Z,998.47
2016-12-12T02:58:59.747Z,998.5
2016-12-12T03:00:10.079Z,998.5
2016-12-12T03:01:20.111Z,998.52
2016-12-12T03:33:14.802Z,998.41
2016-12-12T03:34:24.489Z,998.45
2016-12-12T03:35:34.491Z,998.43
2016-12-12T03:36:44.528Z,998.41
2016-12-12T03:37:54.855Z,998.42
2016-12-12T03:39:05.175Z,998.45
2016-12-12T03:40:15.198Z,998.39
2016-12-12T03:41:25.519Z,998.4
2016-12-12T03:42:35.832Z,998.42
2016-12-12T03:43:45.912Z,998.42
2016-12-12T03:44:55.975Z,998.5
2016-12-12T03:46:05.689Z,998.47
2016-12-12T03:47:16.018Z,998.53
2016-12-12T03:48:26.374Z,998.43
2016-12-12T03:49:36.736Z,998.44
2016-12-12T03:50:46.447Z,998.41
2016-12-12T03:51:55.839Z,998.43
2016-12-12T03:53:05.862Z,998.31
2016-12-12T03:54:16.182Z,998.43
2016-12-12T03:55:26.530Z,998.49
2016-12-12T03:56:36.547Z,998.5
2016-12-12T03:57:46.877Z,998.51
2016-12-12T03:58:57.215Z,998.48
2016-12-12T04:00:07.225Z,998.51
2016-12-12T04:01:17.239Z,998.44
2016-12-12T04:02:26.959Z,998.56
2016-12-12T04:03:37.301Z,998.56
2016-12-12T04:04:47.642Z,998.55
2016-12-12T04:05:57.679Z,998.61
2016-12-12T04:07:07.750Z,998.57
2016-12-12T04:08:17.757Z,998.52
2016-12-12T04:09:27.768Z,998.49
2016-12-12T04:10:38.111Z,998.48
2016-12-12T04:11:48.439Z,998.55
2016-12-12T04:12:58.499Z,998.48
2016-12-12T04:14:08.581Z,998.59
2016-12-12T04:15:18.661Z,998.66
2016-12-12T04:16:29.034Z,998.51
2016-12-12T04:17:39.346Z,998.49
2016-12-12T04:18:49.357Z,998.49
2016-12-12T04:19:59.068Z,998.6
2016-12-12T04:21:09.401Z,998.65
2016-12-12T04:22:18.798Z,998.59
2016-12-12T04:23:29.133Z,998.56
2016-12-12T04:24:39.461Z,998.64
2016-12-12T04:25:49.472Z,998.66
2016-12-12T04:26:59.846Z,998.67
2016-12-12T04:28:09.852Z,998.59
2016-12-12T04:29:20.169Z,998.67
2016-12-12T04:30:29.878Z,998.66
2016-12-12T04:31:39.901Z,998.69
2016-12-12T04:32:50.217Z,998.68
2016-12-12T04:34:00.253Z,998.7
2016-12-12T04:35:10.591Z,998.69
2016-12-12T04:36:20.922Z,998.76
2016-12-12T04:37:30.931Z,998.74
2016-12-12T04:38:41.256Z,998.69
2016-12-12T04:39:51.596Z,998.71
2016-12-12T04:41:01.932Z,998.69
2016-12-12T04:42:12.257Z,998.7
2016-12-12T04:43:22.332Z,998.65
2016-12-12T04:44:32.032Z,998.69
2016-12-12T04:45:42.364Z,998.69
2016-12-12T04:46:52.380Z,998.67
2016-12-12T04:48:02.716Z,998.64
2016-12-12T04:49:12.718Z,998.75
2016-12-12T04:50:22.770Z,998.75
2016-12-12T04:51:32.786Z,998.67
2016-12-12T04:52:42.803Z,998.69
2016-12-12T04:53:52.497Z,998.72
2016-12-12T04:55:02.867Z,998.7
2016-12-12T04:56:13.198Z,998.72
2016-12-12T04:57:23.524Z,998.75
2016-12-12T04:58:33.551Z,998.74
2016-12-12T04:59:43.567Z,998.75
2016-12-12T05:00:53.893Z,998.7
2016-12-12T05:02:03.926Z,998.79
2016-12-12T05:03:14.308Z,998.83
2016-12-12T05:04:24.685Z,998.78
2016-12-12T05:05:34.740Z,998.75
2016-12-12T05:06:45.067Z,998.78
2016-12-12T05:07:55.395Z,998.75
2016-12-12T05:09:05.410Z,998.74
2016-12-12T05:10:15.733Z,998.74
2016-12-12T05:11:26.060Z,998.71
2016-12-12T05:12:36.410Z,998.75
2016-12-12T05:13:46.473Z,998.71
2016-12-12T05:14:56.832Z,998.69
2016-12-12T05:16:07.146Z,998.69
2016-12-12T05:17:17.480Z,998.73
2016-12-12T05:18:27.804Z,998.71
2016-12-12T05:19:38.145Z,998.75
2016-12-12T05:20:48.479Z,998.76
2016-12-12T05:21:58.838Z,998.68
2016-12-12T05:23:08.856Z,998.74
2016-12-12T05:24:18.874Z,998.65
2016-12-12T05:25:29.205Z,998.68
2016-12-12T05:26:39.576Z,998.64
2016-12-12T05:27:49.593Z,998.66
2016-12-12T05:28:59.915Z,998.63
2016-12-12T05:30:09.616Z,998.63
2016-12-12T05:31:19.938Z,998.72
2016-12-12T05:32:29.650Z,998.68
2016-12-12T05:33:39.981Z,998.59
2016-12-12T05:34:49.695Z,998.6
2016-12-12T05:35:59.741Z,998.52
2016-12-12T05:37:10.067Z,998.7
2016-12-12T05:38:20.409Z,998.65
2016-12-12T05:39:30.434Z,998.63
2016-12-12T05:40:40.762Z,998.67
2016-12-12T05:41:51.095Z,998.65
2016-12-12T05:43:01.416Z,998.64
2016-12-12T05:44:11.432Z,998.73
2016-12-12T05:45:21.449Z,998.75
2016-12-12T05:46:31.463Z,998.72
2016-12-12T05:47:41.814Z,998.76
2016-12-12T05:48:52.190Z,998.79
2016-12-12T05:50:02.212Z,998.83
2016-12-12T05:51:12.544Z,998.81
2016-12-12T05:52:22.241Z,998.84
2016-12-12T05:53:32.252Z,998.84
2016-12-12T05:54:42.268Z,998.95
2016-12-12T05:55:52.280Z,998.9
2016-12-12T05:57:02.307Z,998.92
2016-12-12T05:58:12.653Z,999
2016-12-12T05:59:23.045Z,999
2016-12-12T06:00:33.372Z,999.01
2016-12-12T06:01:43.400Z,999.04
2016-12-12T06:02:53.406Z,999.05
2016-12-12T06:04:03.117Z,999.09
2016-12-12T06:05:13.466Z,999.1
2016-12-12T06:06:23.490Z,999.12
2016-12-12T06:07:33.547Z,999.11
2016-12-12T06:08:43.905Z,999.09
2016-12-12T06:09:54.235Z,999.08
2016-12-12T06:11:04.258Z,999.11
2016-12-12T06:12:13.960Z,999.1
2016-12-12T06:13:23.978Z,999.05
2016-12-12T06:14:34.324Z,999.09
2016-12-12T06:15:44.348Z,999.08
2016-12-12T06:16:54.439Z,999
2016-12-12T06:18:04.144Z,999.03
2016-12-12T06:19:14.500Z,999.08
2016-12-12T06:20:24.822Z,999.1
2016-12-12T06:21:34.843Z,999.1
2016-12-12T06:22:44.854Z,999.14
2016-12-12T06:23:54.871Z,999.1
2016-12-12T06:25:04.897Z,999.11
2016-12-12T06:26:14.921Z,999.09
2016-12-12T06:27:25.234Z,999.13
2016-12-12T06:28:35.560Z,999.06
2016-12-12T06:29:45.591Z,999.06
2016-12-12T06:30:55.609Z,999.04
2016-12-12T06:32:05.969Z,999.02
2016-12-12T06:33:15.987Z,999.04
2016-12-12T06:34:26.004Z,999.02
2016-12-12T06:35:36.318Z,998.98
2016-12-12T06:36:46.371Z,998.96
2016-12-12T06:37:56.707Z,998.97
2016-12-12T06:39:07.043Z,998.87
2016-12-12T06:40:17.377Z,998.92
2016-12-12T06:41:27.707Z,998.91
2016-12-12T06:42:37.409Z,998.88
2016-12-12T06:43:47.437Z,998.84
2016-12-12T06:44:57.769Z,998.84
2016-12-12T06:46:08.095Z,998.86
2016-12-12T06:47:18.445Z,998.86
2016-12-12T06:48:28.772Z,998.81
2016-12-12T06:49:38.788Z,998.84
2016-12-12T06:50:48.836Z,998.84
2016-12-12T06:51:58.543Z,998.87
2016-12-12T06:53:08.248Z,998.94
2016-12-12T06:54:18.585Z,998.87
2016-12-12T06:55:28.942Z,998.91
2016-12-12T06:56:38.659Z,998.93
2016-12-12T06:57:48.995Z,998.92
2016-12-12T06:58:59.328Z,998.93
2016-12-12T07:00:09.344Z,998.93
2016-12-12T07:01:18.735Z,998.9
2016-12-12T07:02:28.777Z,998.85
2016-12-12T07:03:39.350Z,998.92
2016-12-12T07:04:49.070Z,998.85
2016-12-12T07:05:59.097Z,998.92
2016-12-12T07:07:09.434Z,998.9
2016-12-12T07:08:19.773Z,998.92
2016-12-12T07:09:30.164Z,998.84
2016-12-12T07:10:40.415Z,998.98
2016-12-12T07:11:50.477Z,998.81
2016-12-12T07:13:00.504Z,998.94
2016-12-12T07:14:10.848Z,998.89
2016-12-12T07:15:21.186Z,998.88
2016-12-12T07:16:30.895Z,998.89
2016-12-12T07:17:41.225Z,998.88
2016-12-12T07:18:51.247Z,998.83
2016-12-12T07:20:01.278Z,998.79
2016-12-12T07:21:11.292Z,998.78
2016-12-12T07:22:21.631Z,998.78
2016-12-12T07:23:31.960Z,998.92
2016-12-12T07:24:42.299Z,998.96
2016-12-12T07:25:52.634Z,998.92
2016-12-12T07:27:02.658Z,998.95
2016-12-12T07:28:13.014Z,998.95
2016-12-12T07:29:23.343Z,998.94
2016-12-12T07:30:33.043Z,998.92
2016-12-12T07:31:43.086Z,998.9
2016-12-12T07:32:53.422Z,998.97
2016-12-12T07:34:03.430Z,998.97
2016-12-12T07:35:13.761Z,998.94
2016-12-12T07:36:24.119Z,998.97
2016-12-12T07:37:34.450Z,998.94
2016-12-12T07:38:44.171Z,998.91
2016-12-12T07:39:54.505Z,998.85
2016-12-12T07:41:04.844Z,998.9
2016-12-12T07:42:14.856Z,998.82
2016-12-12T07:43:25.178Z,998.97
2016-12-12T07:44:34.877Z,998.92
2016-12-12T07:45:44.917Z,998.89
2016-12-12T07:46:55.282Z,998.83
2016-12-12T07:48:05.612Z,998.84
2016-12-12T07:49:15.943Z,998.86
2016-12-12T07:50:26.009Z,998.94
2016-12-12T07:51:36.346Z,998.89
2016-12-12T07:52:46.086Z,998.94
2016-12-12T07:53:56.418Z,998.88
2016-12-12T07:55:06.452Z,998.95
2016-12-12T07:56:16.776Z,998.87
2016-12-12T07:57:26.816Z,999.05
2016-12-12T07:58:36.850Z,998.96
2016-12-12T07:59:46.867Z,999.01
2016-12-12T08:00:56.606Z,998.99
2016-12-12T08:02:06.958Z,999.02
2016-12-12T08:03:17.297Z,999.2
2016-12-12T08:04:27.324Z,999.03
2016-12-12T08:05:37.030Z,999.12
2016-12-12T08:06:47.397Z,999.15
2016-12-12T08:07:57.726Z,999.14
2016-12-12T08:09:08.066Z,999.08
2016-12-12T08:10:17.788Z,999.1
2016-12-12T08:11:27.480Z,999.22
2016-12-12T08:12:37.835Z,999.33
2016-12-12T08:13:48.208Z,999.31
2016-12-12T08:14:58.226Z,999.22
2016-12-12T08:16:08.557Z,999.28
2016-12-12T08:17:18.259Z,999.27
2016-12-12T08:18:28.280Z,999.26
2016-12-12T08:19:37.987Z,999.35
2016-12-12T08:20:48.317Z,999.36
2016-12-12T08:21:58.331Z,999.34
2016-12-12T08:23:08.342Z,999.4
2016-12-12T08:24:18.048Z,999.37
2016-12-12T08:25:27.811Z,999.37
2016-12-12T08:26:37.527Z,999.39
2016-12-12T08:27:47.244Z,999.38
2016-12-12T08:28:57.245Z,999.34
2016-12-12T08:30:07.568Z,999.31
2016-12-12T08:31:17.599Z,999.31
2016-12-12T08:32:27.614Z,999.32
2016-12-12T08:33:37.952Z,999.37
2016-12-12T08:34:48.290Z,999.36
2016-12-12T08:35:58.623Z,999.49
2016-12-12T08:37:08.952Z,999.36
2016-12-12T08:38:19.295Z,999.47
2016-12-12T08:39:29.307Z,999.46
2016-12-12T08:40:39.327Z,999.52
2016-12-12T08:41:49.654Z,999.48
2016-12-12T08:43:00.020Z,999.47
2016-12-12T08:44:09.736Z,999.64
2016-12-12T08:45:19.763Z,999.59
2016-12-12T08:46:30.091Z,999.53
2016-12-12T08:47:40.413Z,999.72
2016-12-12T08:48:50.750Z,999.77
2016-12-12T08:50:01.088Z,999.71
2016-12-12T08:51:11.417Z,999.72
2016-12-12T08:52:21.750Z,999.74
2016-12-12T08:53:31.769Z,999.66
2016-12-12T08:54:42.115Z,999.61
2016-12-12T08:55:52.195Z,999.82
2016-12-12T08:57:02.204Z,999.69
2016-12-12T08:58:12.227Z,999.53
2016-12-12T08:59:22.255Z,999.74
2016-12-12T09:00:32.584Z,999.73
2016-12-12T09:01:42.914Z,999.78
2016-12-12T09:02:52.940Z,999.91
2016-12-12T09:04:02.646Z,999.98
2016-12-12T09:05:12.662Z,999.89
2016-12-12T09:06:22.686Z,999.87
2016-12-12T09:07:32.718Z,999.99
2016-12-12T09:08:42.430Z,999.83
2016-12-12T09:09:52.442Z,999.98
2016-12-12T09:11:02.473Z,999.92
2016-12-12T09:12:12.560Z,999.88
2016-12-12T09:13:22.889Z,999.84
2016-12-12T09:14:32.591Z,1000
2016-12-12T09:15:42.935Z,1000.01
2016-12-12T09:16:52.957Z,1000.07
2016-12-12T09:18:03.284Z,1000.04
2016-12-12T09:19:13.608Z,1000.13
2016-12-12T09:20:23.635Z,1000.08
2016-12-12T09:21:33.982Z,1000.06
2016-12-12T09:22:44.000Z,1000.15
2016-12-12T09:23:54.015Z,1000.14
2016-12-12T09:25:04.342Z,1000.23
2016-12-12T09:26:14.359Z,1000.3
2016-12-12T09:27:24.065Z,1000.3
2016-12-12T09:28:34.407Z,1000.21
2016-12-12T09:29:44.775Z,1000.27
2016-12-12T09:30:55.101Z,1000.26
2016-12-12T09:32:04.508Z,999.98
2016-12-12T09:33:14.524Z,1000.16
2016-12-12T09:34:24.539Z,1000.2
2016-12-12T09:35:34.609Z,1000.15
2016-12-12T09:36:44.304Z,1000.41
2016-12-12T09:37:54.317Z,1000.21
2016-12-12T09:39:04.358Z,1000.13
2016-12-12T09:40:14.373Z,1000.11
2016-12-12T09:41:24.380Z,1000.08
2016-12-12T09:42:34.392Z,1000.12
2016-12-12T09:43:44.408Z,1000.05
2016-12-12T09:44:54.742Z,1000.06
2016-12-12T09:46:04.763Z,999.97
2016-12-12T09:47:14.789Z,1000.06
2016-12-12T09:48:25.113Z,1000.01
2016-12-12T09:49:35.127Z,999.98
2016-12-12T09:50:45.468Z,1000.04
2016-12-12T09:51:55.857Z,999.96
2016-12-12T09:53:05.912Z,1000.02
2016-12-12T09:54:15.956Z,999.97
2016-12-12T09:55:26.271Z,999.85
2016-12-12T09:56:35.972Z,999.95
2016-12-12T09:57:45.675Z,1000.03
2016-12-12T09:58:56.026Z,1000.05
2016-12-12T10:00:06.353Z,1000.07
2016-12-12T10:01:16.373Z,1000.1
2016-12-12T10:02:26.388Z,1000.1
2016-12-12T10:03:36.119Z,1000.02
2016-12-12T10:04:45.828Z,1000.04
2016-12-12T10:05:55.839Z,1000.02
2016-12-12T10:07:06.172Z,1000.13
2016-12-12T10:08:16.185Z,1000.03
2016-12-12T10:09:26.522Z,1000.05
2016-12-12T10:10:36.545Z,999.96
2016-12-12T10:11:46.575Z,1000.06
2016-12-12T10:12:56.922Z,999.99
2016-12-12T10:14:07.253Z,999.96
2016-12-12T10:15:17.611Z,1000.12
2016-12-12T10:16:27.681Z,1000.23
2016-12-12T10:17:37.703Z,1000.14
2016-12-12T10:18:47.724Z,1000.07
2016-12-12T10:19:57.750Z,1000.06
2016-12-12T10:21:07.768Z,1000.11
2016-12-12T10:22:18.096Z,1000
2016-12-12T10:23:27.817Z,1000.05
2016-12-12T10:24:37.836Z,1000.17
2016-12-12T10:25:47.851Z,999.93
2016-12-12T10:26:58.179Z,1000.07
2016-12-12T10:28:08.198Z,1000.01
2016-12-12T10:29:17.600Z,1000.13
2016-12-12T10:30:27.319Z,1000.07
2016-12-12T10:31:37.653Z,999.9
2016-12-12T10:32:47.684Z,1000.12
2016-12-12T10:33:57.702Z,999.95
2016-12-12T10:35:07.729Z,1000.11
2016-12-12T10:36:18.055Z,1000.35
2016-12-12T10:37:28.377Z,1000.17
2016-12-12T10:38:38.394Z,1000.17
2016-12-12T10:39:48.420Z,1000.03
2016-12-12T10:40:58.758Z,1000.12
2016-12-12T10:42:08.474Z,1000.22
2016-12-12T10:43:18.495Z,1000.16
2016-12-12T10:44:28.525Z,1000.15
2016-12-12T10:45:38.868Z,1000.25
2016-12-12T10:46:48.575Z,1000.02
2016-12-12T10:47:58.922Z,1000.15
2016-12-12T10:49:08.940Z,1000.17
2016-12-12T10:50:19.276Z,1000.11
2016-12-12T10:51:29.598Z,1000.22
2016-12-12T10:52:39.602Z,1000.34
2016-12-12T10:53:49.936Z,1000.37
2016-12-12T10:55:00.284Z,1000.34
2016-12-12T10:56:10.623Z,1000.35
2016-12-12T10:57:20.576Z,1000.28
2016-12-12T10:58:30.586Z,1000.26
2016-12-12T10:59:40.310Z,1000.28
2016-12-12T11:00:50.320Z,1000.18
2016-12-12T11:02:00.343Z,1000.26
2016-12-12T11:03:10.402Z,1000.39
2016-12-12T11:04:20.730Z,1000.45
2016-12-12T11:05:30.459Z,1000.43
2016-12-12T11:06:40.160Z,1000.44
2016-12-12T11:07:50.177Z,1000.5
2016-12-12T11:08:59.873Z,1000.5
2016-12-12T11:10:10.199Z,1000.42
2016-12-12T11:11:19.911Z,1000.42
2016-12-12T11:12:30.251Z,1000.44
2016-12-12T11:13:40.598Z,1000.39
2016-12-12T11:14:50.607Z,1000.36
2016-12-12T11:16:00.624Z,1000.51
2016-12-12T11:17:10.959Z,1000.41
2016-12-12T11:18:21.296Z,1000.47
2016-12-12T11:19:31.628Z,1000.52
2016-12-12T11:20:41.329Z,1000.47
2016-12-12T11:21:51.666Z,1000.47
2016-12-12T11:23:01.692Z,1000.42
2016-12-12T11:24:11.752Z,1000.47
2016-12-12T11:25:21.456Z,1000.39
2016-12-12T11:26:46.068Z,1000.47
2016-12-12T11:27:56.094Z,1000.52
2016-12-12T11:29:05.811Z,1000.45
2016-12-12T11:30:15.852Z,1000.51
2016-12-12T11:31:25.894Z,1000.45
2016-12-12T11:32:36.238Z,1000.6
2016-12-12T11:33:46.621Z,1000.45
2016-12-12T11:34:56.656Z,1000.56
2016-12-12T11:36:06.994Z,1000.49
2016-12-12T11:37:17.013Z,1000.51
2016-12-12T11:38:27.359Z,1000.51
2016-12-12T11:39:37.377Z,1000.54
2016-12-12T11:40:47.700Z,1000.49
2016-12-12T11:41:58.044Z,1000.54
2016-12-12T11:43:08.380Z,1000.54
2016-12-12T11:44:18.703Z,1000.49
2016-12-12T11:45:29.030Z,1000.51
2016-12-12T11:46:39.047Z,1000.55
2016-12-12T11:47:48.751Z,1000.64
2016-12-12T11:48:59.105Z,1000.56
2016-12-12T11:50:09.123Z,1000.61
2016-12-12T11:51:19.467Z,1000.5
2016-12-12T11:52:29.501Z,1000.49
2016-12-12T11:53:39.521Z,1000.61
2016-12-12T11:54:49.532Z,1000.66
2016-12-12T11:55:59.884Z,1000.69
2016-12-12T11:57:10.225Z,1000.61
2016-12-12T11:58:20.257Z,1000.64
2016-12-12T11:59:30.584Z,1000.65
2016-12-12T12:00:40.962Z,1000.76
2016-12-12T12:01:51.293Z,1000.77
2016-12-12T12:03:01.319Z,1000.84
2016-12-12T12:04:11.655Z,1000.88
2016-12-12T12:05:21.689Z,1000.93
2016-12-12T12:06:31.712Z,1000.99
2016-12-12T12:07:42.052Z,1000.96
2016-12-12T12:08:52.088Z,1000.89
2016-12-12T12:10:02.120Z,1000.94
2016-12-12T12:11:12.141Z,1000.88
2016-12-12T12:12:22.487Z,1000.97
2016-12-12T12:13:32.820Z,1001.01
2016-12-12T12:14:42.534Z,1000.93
2016-12-12T12:15:52.853Z,1001.06
2016-12-12T12:17:02.909Z,1000.99
2016-12-12T12:18:12.967Z,1001.01
2016-12-12T12:19:23.005Z,1001.01
2016-12-12T12:20:33.342Z,1001.01
2016-12-12T12:21:43.716Z,1001.03
2016-12-12T12:22:54.063Z,1000.99
2016-12-12T12:24:03.484Z,1001.01
2016-12-12T12:25:13.533Z,1001.05
2016-12-12T12:26:23.851Z,1000.99
2016-12-12T12:27:34.181Z,1001.07
2016-12-12T12:28:44.517Z,1001.03
2016-12-12T12:29:54.249Z,1001.05
2016-12-12T12:31:04.265Z,1001.12
2016-12-12T12:32:14.604Z,1001.04
2016-12-12T12:33:24.942Z,1001.1
2016-12-12T12:34:35.297Z,1001.08
2016-12-12T12:35:45.649Z,1001.18
2016-12-12T12:36:55.977Z,1001.17
2016-12-12T12:38:06.003Z,1001.14
2016-12-12T12:39:16.032Z,1001.19
2016-12-12T12:40:26.039Z,1001.25
2016-12-12T12:41:36.365Z,1001.2
2016-12-12T12:42:46.377Z,1001.22
2016-12-12T12:43:56.399Z,1001.22
2016-12-12T12:45:06.724Z,1001.32
2016-12-12T12:46:16.134Z,1001.3
2016-12-12T12:47:26.473Z,1001.27
2016-12-12T12:48:36.795Z,1001.29
2016-12-12T12:49:46.511Z,1001.31
2016-12-12T12:50:56.860Z,1001.3
2016-12-12T12:52:06.915Z,1001.22
2016-12-12T12:53:17.341Z,1001.26
2016-12-12T12:54:27.038Z,1001.29
2016-12-12T12:55:37.059Z,1001.28
2016-12-12T12:56:47.107Z,1001.35
2016-12-12T12:57:57.442Z,1001.26
2016-12-12T12:59:06.840Z,1001.31
2016-12-12T13:00:17.193Z,1001.36
2016-12-12T13:01:27.215Z,1001.29
2016-12-12T13:02:37.236Z,1001.27
2016-12-12T13:03:47.560Z,1001.35
2016-12-12T13:04:57.574Z,1001.38
2016-12-12T13:06:07.916Z,1001.36
2016-12-12T13:07:17.945Z,1001.38
2016-12-12T13:08:28.293Z,1001.34
2016-12-12T13:09:37.705Z,1001.46
2016-12-12T13:10:48.080Z,1001.39
2016-12-12T13:11:58.427Z,1001.46
2016-12-12T13:13:08.139Z,1001.45
2016-12-12T13:14:18.462Z,1001.41
2016-12-12T13:15:28.803Z,1001.44
2016-12-12T13:16:39.136Z,1001.38
2016-12-12T13:17:49.480Z,1001.41
2016-12-12T13:18:59.510Z,1001.36
2016-12-12T13:20:09.859Z,1001.38
2016-12-12T13:21:19.575Z,1001.39
2016-12-12T13:22:29.909Z,1001.44
2016-12-12T13:23:40.264Z,1001.51
2016-12-12T13:24:49.667Z,1001.33
2016-12-12T13:25:59.703Z,1001.47
2016-12-12T13:27:10.039Z,1001.4
2016-12-12T13:28:20.361Z,1001.45
2016-12-12T13:29:30.687Z,1001.44
2016-12-12T13:30:40.700Z,1001.47
2016-12-12T13:31:50.760Z,1001.41
2016-12-12T13:33:01.099Z,1001.35
2016-12-12T13:34:10.809Z,1001.41
2016-12-12T13:35:21.141Z,1001.43
2016-12-12T13:36:31.479Z,1001.54
2016-12-12T13:37:41.510Z,1001.42
2016-12-12T13:38:51.543Z,1001.63
2016-12-12T13:40:01.879Z,1001.69
2016-12-12T13:41:11.897Z,1001.6
2016-12-12T13:42:21.911Z,1001.57
2016-12-12T13:43:32.261Z,1001.61
2016-12-12T13:44:42.605Z,1001.62
2016-12-12T13:45:52.613Z,1001.52
2016-12-12T13:47:02.940Z,1001.55
2016-12-12T13:48:12.979Z,1001.56
2016-12-12T13:49:23.006Z,1001.67
2016-12-12T13:50:32.713Z,1001.74
2016-12-12T13:51:43.070Z,1001.8
2016-12-12T13:52:52.841Z,1001.64
2016-12-12T13:54:03.183Z,1001.68
2016-12-12T13:55:13.210Z,1001.7
2016-12-12T13:56:23.547Z,1001.73
2016-12-12T13:57:33.573Z,1001.73
2016-12-12T13:58:42.964Z,1001.7
2016-12-12T13:59:53.311Z,1001.78
2016-12-12T14:01:03.019Z,1001.79
2016-12-12T14:02:13.068Z,1001.8
2016-12-12T14:03:23.144Z,1001.89
2016-12-12T14:04:33.586Z,1001.9
2016-12-12T14:05:45.023Z,1001.94
2016-12-12T14:06:55.466Z,1001.98
2016-12-12T14:08:05.925Z,1001.99
2016-12-12T14:09:15.760Z,1002.07
2016-12-12T14:10:25.852Z,1002.12
2016-12-12T14:11:35.874Z,1002.06
2016-12-12T14:12:46.362Z,1002.1
2016-12-12T14:13:56.832Z,1002.01
2016-12-12T14:15:07.403Z,1002
2016-12-12T14:16:17.761Z,1002.03
2016-12-12T14:17:27.822Z,1002.06
2016-12-12T14:18:38.223Z,1002.09
2016-12-12T14:19:48.573Z,1002.09
2016-12-12T14:20:58.603Z,1002.09
2016-12-12T14:22:08.654Z,1002.25
2016-12-12T14:23:19.025Z,1002.04
2016-12-12T14:24:29.378Z,1002.01
2016-12-12T14:25:39.515Z,1002.16
2016-12-12T14:26:49.879Z,1002.08
2016-12-12T14:28:00.216Z,1002.2
2016-12-12T14:29:10.294Z,1002.13
2016-12-12T14:30:20.635Z,1002.14
2016-12-12T14:31:30.696Z,1002.11
2016-12-12T14:32:40.803Z,1002.15
2016-12-12T14:33:50.841Z,1002.08
2016-12-12T14:35:00.973Z,1002.26
2016-12-12T14:36:11.354Z,1002.14
2016-12-12T14:37:21.166Z,1002.24
2016-12-12T14:38:31.568Z,1002.15
2016-12-12T14:39:41.605Z,1002.18
2016-12-12T14:40:51.640Z,1002.21
2016-12-12T14:42:01.348Z,1002.22
2016-12-12T14:43:11.445Z,1002.24
2016-12-12T14:44:21.159Z,1002.2
2016-12-12T14:45:31.492Z,1002.26
2016-12-12T14:46:41.532Z,1002.27
2016-12-12T14:47:51.562Z,1002.28
2016-12-12T14:49:01.906Z,1002.31
2016-12-12T14:50:12.300Z,1002.21
2016-12-12T14:51:22.035Z,1002.25
2016-12-12T14:52:32.388Z,1002.26
2016-12-12T14:53:42.791Z,1002.3
2016-12-12T14:54:53.055Z,1002.42
2016-12-12T14:56:03.432Z,1002.27
2016-12-12T14:57:13.450Z,1002.41
2016-12-12T14:58:23.796Z,1002.43